Time;durP1;ratioP1;P1;durP2;ratioP2;P2;SDS_P1;SDS_P2;PMS_P1;PMS_P2;Temp;Humidity;BMP_temperature;BMP_pressure;BME280_temperature;BME280_humidity;BME280_pressure;Samples;Min_cycle;Max_cycle;Signal;HPM_P1;HPM_P2
2021/12/26 00:00:25;;;;;;;69.57;21.37;;;;;;;-8.20;95.61;100626.31;5059300;58;1139098;-73
2021/12/26 00:05:32;;;;;;;68.77;24.73;;;;;;;-8.17;94.78;100633.16;5055761;58;1137111;-74
2021/12/26 00:10:39;;;;;;;65.00;20.68;;;;;;;-8.15;94.93;100627.61;5058095;58;1141102;-74
2021/12/26 00:15:45;;;;;;;57.03;18.93;;;;;;;-7.99;94.95;100636.16;4905543;59;1141279;-77
2021/12/26 00:20:52;;;;;;;49.67;14.40;;;;;;;-8.11;93.54;100637.45;5048873;57;1141391;-75
2021/12/26 00:25:58;;;;;;;108.27;31.80;;;;;;;-8.35;92.96;100641.73;4969448;59;1141248;-74
2021/12/26 00:31:06;;;;;;;94.23;23.40;;;;;;;-8.59;93.23;100648.13;5040281;57;1143244;-80
2021/12/26 00:36:12;;;;;;;102.30;28.27;;;;;;;-8.75;93.73;100654.06;5040299;57;1141202;-76
2021/12/26 00:41:19;;;;;;;265.70;64.70;;;;;;;-8.95;94.08;100657.41;5040300;57;1143267;-78
2021/12/26 00:46:25;;;;;;;90.70;24.60;;;;;;;-9.01;94.69;100652.25;5040382;57;1143036;-78
2021/12/26 00:51:33;;;;;;;83.63;26.30;;;;;;;-9.04;94.75;100659.09;5050893;57;1141137;-78
2021/12/26 00:56:41;;;;;;;84.10;23.33;;;;;;;-9.09;94.99;100643.70;5051059;57;1141277;-76
2021/12/26 01:01:47;;;;;;;77.78;24.57;;;;;;;-9.05;95.17;100647.13;5046906;57;1141242;-77
2021/12/26 01:06:54;;;;;;;65.37;18.77;;;;;;;-9.03;95.06;100644.16;5048654;57;1141200;-75
2021/12/26 01:12:11;;;;;;;61.50;19.00;;;;;;;-9.05;95.09;100638.17;5071442;58;1141106;-76
2021/12/26 01:17:14;;;;;;;63.03;17.40;;;;;;;-9.09;94.92;100639.86;5126297;57;1141387;-80
2021/12/26 01:22:21;;;;;;;41.23;12.73;;;;;;;-9.14;94.87;100633.84;5120849;57;1141258;-76
2021/12/26 01:27:29;;;;;;;69.57;23.77;;;;;;;-9.15;95.09;100630.86;5125469;57;1140947;-74
2021/12/26 01:32:35;;;;;;;70.70;21.07;;;;;;;-9.16;94.97;100633.41;5122785;57;1141325;-78
2021/12/26 01:37:49;;;;;;;57.53;20.67;;;;;;;-9.20;94.74;100639.39;5121288;57;1141134;-73
2021/12/26 01:43:06;;;;;;;80.60;23.33;;;;;;;-9.22;94.69;100641.94;5088263;57;1141227;-76
2021/12/26 01:48:15;;;;;;;171.10;50.90;;;;;;;-9.22;94.70;100643.22;5126460;57;1141321;-77
2021/12/26 01:53:26;;;;;;;91.57;23.47;;;;;;;-9.15;94.79;100646.22;5122921;57;1143291;-78
2021/12/26 01:58:33;;;;;;;84.10;23.53;;;;;;;-9.23;94.24;100646.63;5083739;57;1141545;-78
2021/12/26 02:03:42;;;;;;;76.73;25.90;;;;;;;-9.30;94.17;100636.77;4944100;59;1141069;-75
2021/12/26 02:08:49;;;;;;;68.43;22.07;;;;;;;-9.36;93.96;100643.16;4981391;58;1141107;-76
2021/12/26 02:13:55;;;;;;;90.77;26.27;;;;;;;-9.39;93.95;100648.69;4885411;59;1141312;-77
2021/12/26 02:19:01;;;;;;;76.20;23.47;;;;;;;-9.37;94.31;100647.84;4931645;59;1141192;-72
2021/12/26 02:24:17;;;;;;;78.27;24.50;;;;;;;-9.29;94.42;100652.57;4891072;60;1141303;-73
2021/12/26 02:29:18;;;;;;;75.33;22.53;;;;;;;-9.36;93.87;100655.11;4987431;58;1141116;-76
2021/12/26 02:34:24;;;;;;;77.77;24.67;;;;;;;-9.39;93.93;100647.41;4950853;58;1141247;-74
2021/12/26 02:39:32;;;;;;;77.70;24.20;;;;;;;-9.31;94.29;100643.16;5011763;58;1138530;-74
2021/12/26 02:44:37;;;;;;;81.10;24.23;;;;;;;-9.23;94.53;100644.07;5042651;58;1139071;-74
2021/12/26 02:49:43;;;;;;;67.50;22.27;;;;;;;-9.03;94.96;100648.00;5009490;58;1138996;-78
2021/12/26 02:54:49;;;;;;;74.97;26.43;;;;;;;-8.92;94.74;100642.05;4910534;59;1139159;-74
2021/12/26 02:59:55;;;;;;;69.33;22.17;;;;;;;-8.81;94.90;100642.50;4969085;59;1139140;-75
2021/12/26 03:05:06;;;;;;;75.47;23.93;;;;;;;-8.64;95.11;100640.41;5027990;57;1139046;-77
2021/12/26 03:10:21;;;;;;;72.20;21.00;;;;;;;-8.47;95.00;100639.16;5015209;58;1139024;-78
2021/12/26 03:15:28;;;;;;;66.37;19.97;;;;;;;-8.64;92.24;100638.27;5010771;58;1139103;-78
2021/12/26 03:20:39;;;;;;;55.67;21.70;;;;;;;-9.00;91.05;100646.70;4920987;60;1138745;-77
2021/12/26 03:25:46;;;;;;;56.20;19.73;;;;;;;-9.27;91.34;100641.91;4920231;60;1139024;-74
2021/12/26 03:30:53;;;;;;;58.03;19.33;;;;;;;-9.34;91.70;100641.89;4919144;60;1139016;-75
2021/12/26 03:35:59;;;;;;;61.40;18.50;;;;;;;-9.42;92.04;100640.56;4912075;60;1138942;-77
2021/12/26 03:41:05;;;;;;;53.50;17.23;;;;;;;-9.41;92.32;100654.22;4912698;59;1139076;-75
2021/12/26 03:46:13;;;;;;;49.47;17.47;;;;;;;-9.46;92.36;100652.91;4846264;60;1137165;-75
2021/12/26 03:51:20;;;;;;;46.90;16.93;;;;;;;-9.42;92.68;100659.77;4920284;59;1136985;-75
2021/12/26 03:56:26;;;;;;;51.20;16.00;;;;;;;-9.47;92.75;100663.16;4921550;59;1141098;-79
2021/12/26 04:01:51;;;;;;;54.30;17.63;;;;;;;-9.34;93.61;100661.95;4920879;60;1141138;-75
2021/12/26 04:06:57;;;;;;;53.93;15.83;;;;;;;-9.10;94.06;100662.48;4921227;60;1141145;-78
2021/12/26 04:12:04;;;;;;;91.40;29.27;;;;;;;-8.91;94.15;100663.41;5020182;58;1141001;-78
2021/12/26 04:17:10;;;;;;;62.23;18.63;;;;;;;-8.78;93.43;100661.73;5053174;58;1141299;-75
2021/12/26 04:22:17;;;;;;;53.93;18.27;;;;;;;-8.75;92.62;100667.73;4972780;59;1140987;-75
2021/12/26 04:27:24;;;;;;;50.03;17.87;;;;;;;-8.85;91.58;100671.52;5053137;58;1141228;-74
2021/12/26 04:32:30;;;;;;;48.67;17.63;;;;;;;-8.91;91.26;100680.06;4972693;59;1141121;-78
2021/12/26 04:37:36;;;;;;;58.07;19.37;;;;;;;-8.93;90.98;100683.91;5052691;58;1141355;-76
2021/12/26 04:42:44;;;;;;;56.57;17.27;;;;;;;-8.99;90.32;100688.13;4948179;59;1141187;-75
2021/12/26 04:47:55;;;;;;;68.43;22.40;;;;;;;-9.01;90.78;100680.44;5046124;58;1141321;-78
2021/12/26 04:53:01;;;;;;;91.63;29.07;;;;;;;-8.97;91.09;100684.73;4972829;59;1141169;-77
2021/12/26 04:58:07;;;;;;;116.17;36.10;;;;;;;-9.14;89.65;100692.77;5053164;58;1141045;-74
2021/12/26 05:03:14;;;;;;;130.27;38.23;;;;;;;-9.12;90.51;100694.91;4966721;59;1143253;-74
2021/12/26 05:08:20;;;;;;;141.23;38.93;;;;;;;-9.04;91.05;100697.10;5042488;58;1143275;-77
2021/12/26 05:13:26;;;;;;;61.90;19.67;;;;;;;-8.97;90.30;100691.14;4936438;59;1143361;-74
2021/12/26 05:18:32;;;;;;;87.27;25.33;;;;;;;-9.28;88.47;100689.28;4955627;59;1141263;-79
2021/12/26 05:23:39;;;;;;;48.97;15.03;;;;;;;-9.62;87.81;100687.79;4960211;59;1141561;-76
2021/12/26 05:28:45;;;;;;;54.40;16.30;;;;;;;-9.85;88.22;100687.20;4959742;59;1141393;-76
2021/12/26 05:33:53;;;;;;;46.80;14.77;;;;;;;-10.09;88.40;100689.16;4902432;59;1141288;-75
2021/12/26 05:39:00;;;;;;;54.77;18.67;;;;;;;-10.24;88.63;100694.17;4980381;58;1143184;-72
2021/12/26 05:44:06;;;;;;;42.70;15.87;;;;;;;-10.37;89.04;100686.36;4980522;58;1143318;-76
2021/12/26 05:49:12;;;;;;;59.73;18.80;;;;;;;-10.28;89.93;100699.67;4980338;58;1143308;-74
2021/12/26 05:54:19;;;;;;;148.23;39.20;;;;;;;-10.03;91.11;100696.45;4979766;58;1143538;-76
2021/12/26 05:59:26;;;;;;;127.97;34.67;;;;;;;-9.85;90.62;100702.14;4980803;58;1145482;-79
2021/12/26 06:04:32;;;;;;;70.57;23.40;;;;;;;-9.78;90.51;100693.68;4980818;58;1143264;-75
2021/12/26 06:09:38;;;;;;;92.97;23.90;;;;;;;-9.73;89.66;100697.53;4979925;58;1141187;-75
2021/12/26 06:14:44;;;;;;;156.80;39.60;;;;;;;-9.74;89.68;100691.97;4900082;60;1141475;-79
2021/12/26 06:19:50;;;;;;;294.63;71.40;;;;;;;-9.65;90.04;100694.20;4993809;58;1143223;-74
2021/12/26 06:25:01;;;;;;;199.90;47.80;;;;;;;-9.52;90.08;100700.25;4908940;59;1143412;-73
2021/12/26 06:30:10;;;;;;;517.27;103.80;;;;;;;-9.50;89.30;100710.08;4966072;58;1143005;-78
2021/12/26 06:35:34;;;;;;;449.13;84.03;;;;;;;-9.83;87.09;100720.06;5115663;57;1143170;-72
2021/12/26 06:40:59;;;;;;;625.10;141.97;;;;;;;-10.33;86.76;100725.19;5138213;57;1141175;-76
2021/12/26 06:46:22;;;;;;;688.37;154.83;;;;;;;-10.68;87.27;100729.91;5083322;57;1145631;-77
2021/12/26 06:51:41;;;;;;;275.47;58.37;;;;;;;-10.79;88.12;100737.88;5070401;58;1145387;-74
2021/12/26 06:56:47;;;;;;;205.57;43.57;;;;;;;-10.78;88.71;100738.73;5076507;57;1143324;-75
2021/12/26 07:01:54;;;;;;;150.30;36.50;;;;;;;-10.58;89.97;100746.64;5076522;57;1141073;-76
2021/12/26 07:07:00;;;;;;;129.20;33.30;;;;;;;-10.34;90.51;100745.20;5076537;57;1141479;-76
2021/12/26 07:12:09;;;;;;;129.03;35.23;;;;;;;-10.13;90.25;100748.38;5064376;57;1145542;-75
2021/12/26 07:17:18;;;;;;;129.00;36.07;;;;;;;-9.99;90.12;100744.23;5076032;57;1145270;-73
2021/12/26 07:22:26;;;;;;;121.22;35.30;;;;;;;-9.79;90.42;100752.09;5075969;58;1143301;-74
2021/12/26 07:27:32;;;;;;;120.33;35.13;;;;;;;-9.66;90.13;100750.06;5076837;58;1143298;-75
2021/12/26 07:32:48;;;;;;;180.53;47.87;;;;;;;-9.70;88.81;100763.67;5072659;57;1142586;-75
2021/12/26 07:37:55;;;;;;;217.03;55.87;;;;;;;-9.79;88.29;100755.08;5077276;58;1143810;-76
2021/12/26 07:43:02;;;;;;;236.03;59.23;;;;;;;-9.80;88.83;100758.48;5077198;57;1143274;-76
2021/12/26 07:48:24;;;;;;;;;;;;;;;-9.73;88.98;100755.11;5080745;58;1143270;-75
2021/12/26 07:53:31;;;;;;;152.67;51.03;;;;;;;-9.61;89.22;100759.89;5079700;58;974216;-77
2021/12/26 07:58:53;;;;;;;138.37;49.67;;;;;;;-9.73;87.58;100762.78;5049800;57;1141114;-76
2021/12/26 08:04:19;;;;;;;244.80;84.13;;;;;;;-9.96;87.76;100762.60;5070048;57;1143173;-73
2021/12/26 08:09:45;;;;;;;320.43;88.53;;;;;;;-10.07;88.30;100748.41;5000776;57;1143515;-73
2021/12/26 08:14:50;;;;;;;200.07;58.30;;;;;;;-10.13;88.87;100746.23;5007700;58;1145384;-74
2021/12/26 08:19:57;;;;;;;155.07;56.53;;;;;;;-10.03;89.79;100758.25;4945438;58;1145340;-71
2021/12/26 08:25:05;;;;;;;149.10;47.20;;;;;;;-9.66;91.54;100760.30;5015730;58;1145372;-70
2021/12/26 08:30:12;;;;;;;150.53;51.37;;;;;;;-9.41;90.85;100770.29;4977828;59;1143285;-70
2021/12/26 08:35:18;;;;;;;92.33;32.43;;;;;;;-9.35;90.62;100775.47;5012700;58;1143207;-70
2021/12/26 08:40:24;;;;;;;98.40;32.20;;;;;;;-9.25;90.88;100766.99;5011997;58;1141100;-70
2021/12/26 08:45:30;;;;;;;101.27;33.97;;;;;;;-9.24;90.94;100775.11;4973931;59;1141387;-70
2021/12/26 08:50:36;;;;;;;105.80;33.13;;;;;;;-9.15;91.41;100779.84;4978417;59;1143178;-70
2021/12/26 08:55:44;;;;;;;71.03;19.97;;;;;;;-9.11;91.66;100769.63;4989109;59;1143168;-70
2021/12/26 09:00:53;;;;;;;95.00;30.40;;;;;;;-9.08;91.97;100782.89;5039309;58;1139096;-70
2021/12/26 09:05:59;;;;;;;137.83;42.53;;;;;;;-9.04;92.60;100782.93;5062535;58;1139245;-70
2021/12/26 09:11:04;;;;;;;53.67;19.20;;;;;;;-8.97;92.83;100788.92;5002146;58;1141137;-71
2021/12/26 09:16:10;;;;;;;100.83;34.00;;;;;;;-8.99;93.64;100797.02;5031752;58;1139541;-74
2021/12/26 09:21:19;;;;;;;87.90;29.70;;;;;;;-8.99;93.64;100797.02;5010265;58;1143207;-77
2021/12/26 09:26:24;;;;;;;141.00;57.17;;;;;;;-8.96;93.96;100804.31;5023781;58;1139086;-77
2021/12/26 09:31:30;;;;;;;103.77;39.53;;;;;;;-8.87;94.43;100802.67;4953931;58;1141091;-75
2021/12/26 09:37:04;;;;;;;81.57;31.33;;;;;;;-8.75;94.68;100809.99;4964235;59;1141090;-77
2021/12/26 09:41:57;;;;;;;74.80;24.37;;;;;;;-8.66;95.22;100801.05;4979396;58;21513;-72
2021/12/26 09:47:05;;;;;;;78.57;30.50;;;;;;;-8.55;95.71;100804.52;4974081;59;1134801;-75
2021/12/26 09:52:12;;;;;;;103.67;40.57;;;;;;;-8.47;95.87;100802.42;4907798;59;1138956;-75
2021/12/26 09:57:18;;;;;;;109.63;43.97;;;;;;;-8.42;96.48;100796.47;4970319;59;1143160;-70
2021/12/26 10:02:24;;;;;;;274.83;66.87;;;;;;;-8.33;96.72;100800.34;4971237;59;1141279;-73
2021/12/26 10:07:32;;;;;;;282.77;88.40;;;;;;;-8.24;97.03;100797.75;4877150;60;1139121;-75
2021/12/26 10:12:42;;;;;;;247.00;100.70;;;;;;;-8.11;97.80;100799.95;4991569;58;1139349;-71
2021/12/26 10:17:48;;;;;;;144.13;50.37;;;;;;;-8.02;97.78;100806.37;4908563;59;1145295;-74
2021/12/26 10:23:01;;;;;;;103.73;28.33;;;;;;;-7.90;97.97;100808.97;5019060;57;1143090;-78
2021/12/26 10:28:19;;;;;;;143.50;42.27;;;;;;;-7.80;98.87;100814.99;4921144;59;1143257;-78
2021/12/26 10:33:25;;;;;;;78.90;27.37;;;;;;;-7.73;98.70;100811.56;4852406;59;1143332;-72
2021/12/26 10:38:31;;;;;;;189.47;73.57;;;;;;;-7.60;99.08;100810.72;4826576;59;1141349;-75
2021/12/26 10:43:47;;;;;;;76.53;27.97;;;;;;;-7.46;99.40;100810.72;4859898;59;1143293;-78
2021/12/26 10:48:53;;;;;;;99.60;37.50;;;;;;;-7.30;99.68;100811.14;4784051;59;1141272;-74
2021/12/26 10:54:31;;;;;;;135.47;59.50;;;;;;;-7.14;99.39;100806.84;4834269;60;1141155;-80
2021/12/26 10:59:37;;;;;;;76.27;25.67;;;;;;;-7.00;99.50;100807.69;4859572;58;1143309;-74
2021/12/26 11:04:58;;;;;;;;;;;;;;;;;;;;;
2021/12/26 11:10:08;;;;;;;105.77;36.40;;;;;;;-6.76;99.00;100796.08;4991234;58;1141148;-74
2021/12/26 11:15:16;;;;;;;78.87;31.50;;;;;;;-6.76;99.18;100772.08;4960713;58;1143196;-72
2021/12/26 11:20:29;;;;;;;52.63;22.27;;;;;;;-6.48;99.18;100791.69;4886257;59;1141297;-76
2021/12/26 11:25:45;;;;;;;57.58;22.17;;;;;;;-6.37;99.00;100798.49;4938454;58;1141217;-73
2021/12/26 11:30:56;;;;;;;96.95;33.08;;;;;;;-6.29;98.70;100801.47;4957136;58;1141065;-75
2021/12/26 11:36:06;;;;;;;76.27;25.57;;;;;;;-6.15;98.54;100798.83;4958515;58;1141118;-75
2021/12/26 11:42:01;;;;;;;85.70;38.17;;;;;;;-5.97;98.80;100791.01;4937630;58;1141262;-73
2021/12/26 11:47:58;;;;;;;86.73;39.90;;;;;;;-5.56;99.20;100790.68;4950562;58;1139194;-75
2021/12/26 11:53:59;;;;;;;128.80;61.50;;;;;;;-4.82;99.42;100779.25;4907073;60;1141044;-76
2021/12/26 11:59:31;;;;;;;169.43;43.17;;;;;;;-4.36;96.56;100771.82;4883389;58;1142870;-75
2021/12/26 12:04:40;;;;;;;173.07;43.40;;;;;;;-3.87;97.02;100764.26;5075210;58;1143149;-75
2021/12/26 12:09:47;;;;;;;100.87;32.43;;;;;;;-3.48;94.31;100754.16;5079915;57;1143124;-74
2021/12/26 12:14:57;;;;;;;100.33;31.33;;;;;;;-3.14;93.16;100754.00;5116006;57;1143079;-75
2021/12/26 12:20:17;;;;;;;101.37;37.50;;;;;;;-2.91;92.97;100748.42;5076039;57;1143177;-84
2021/12/26 12:25:41;;;;;;;74.95;28.40;;;;;;;-2.57;93.90;100753.33;5078684;58;1143523;-76
2021/12/26 12:30:52;;;;;;;81.53;30.62;;;;;;;-2.15;92.00;100752.89;4999310;58;1140616;-80
2021/12/26 12:36:04;;;;;;;77.73;30.33;;;;;;;-1.86;91.41;100739.27;4950225;59;1141018;-76
2021/12/26 12:41:38;;;;;;;127.40;49.00;;;;;;;-1.54;90.88;100732.02;5038313;58;1141367;-77
2021/12/26 12:47:05;;;;;;;87.50;34.27;;;;;;;-1.18;91.68;100734.11;4992456;58;1141094;-78
2021/12/26 12:52:46;;;;;;;95.97;35.53;;;;;;;-0.82;90.41;100734.88;4980867;58;1139074;-78
2021/12/26 12:57:56;;;;;;;102.20;38.27;;;;;;;-0.42;88.23;100726.80;4936580;59;1139253;-78
2021/12/26 13:03:02;;;;;;;74.47;30.70;;;;;;;-0.44;85.89;100718.63;4953466;59;1141151;-78
2021/12/26 13:08:12;;;;;;;88.90;41.50;;;;;;;-0.53;83.44;100721.06;4942217;59;1137033;-78
2021/12/26 13:13:21;;;;;;;178.18;85.22;;;;;;;-0.46;84.38;100717.38;4976179;59;1141103;-78
2021/12/26 13:18:31;;;;;;;374.75;138.60;;;;;;;-0.36;84.25;100717.98;4861128;59;1143180;-77
2021/12/26 13:23:40;;;;;;;154.90;66.97;;;;;;;-0.26;83.74;100712.90;4987363;58;1145430;-76
2021/12/26 13:28:57;;;;;;;125.93;59.90;;;;;;;0.08;84.33;100714.47;5053556;58;1143194;-76
2021/12/26 13:34:03;;;;;;;309.77;98.45;;;;;;;0.51;86.54;100717.83;5033446;58;1141074;-77
2021/12/26 13:39:22;;;;;;;132.43;50.67;;;;;;;-0.02;83.06;100730.81;5056270;57;1141116;-78
2021/12/26 13:44:27;;;;;;;91.00;35.57;;;;;;;-0.63;83.93;100743.46;5058689;57;1143162;-75
2021/12/26 13:49:33;;;;;;;116.73;45.33;;;;;;;-1.31;83.93;100746.14;5061794;57;1141478;-77
2021/12/26 13:54:48;;;;;;;148.25;57.10;;;;;;;-1.92;84.72;100754.95;5060985;57;1143269;-77
2021/12/26 14:00:16;;;;;;;136.53;53.37;;;;;;;-2.38;85.38;100754.25;5041371;57;1143110;-76
2021/12/26 14:05:20;;;;;;;229.83;79.73;;;;;;;-2.66;86.35;100758.70;5048099;57;1143756;-75
2021/12/26 14:10:25;;;;;;;228.07;83.03;;;;;;;-2.88;86.42;100756.95;5061266;57;1143141;-75
2021/12/26 14:15:35;;;;;;;163.80;59.70;;;;;;;-3.11;86.27;100758.27;5061838;57;1143135;-76
2021/12/26 14:21:02;;;;;;;145.00;53.50;;;;;;;-3.44;85.86;100764.88;5050130;57;1143091;-77
2021/12/26 14:26:12;;;;;;;376.63;128.83;;;;;;;-3.69;86.50;100764.42;5052371;58;1143187;-76
2021/12/26 14:31:39;;;;;;;288.03;100.97;;;;;;;-3.84;87.57;100764.22;5044510;57;1145752;-76
2021/12/26 14:36:58;;;;;;;325.23;105.77;;;;;;;-3.88;87.78;100775.47;4973734;59;1145553;-70
2021/12/26 14:42:15;;;;;;;220.57;85.87;;;;;;;-4.08;87.31;100778.33;4974351;59;1143180;-70
2021/12/26 14:47:26;;;;;;;175.80;67.43;;;;;;;-4.22;87.58;100785.41;4973212;59;1141404;-71
2021/12/26 14:52:31;;;;;;;169.60;61.37;;;;;;;-4.33;88.07;100782.11;4970253;59;1141085;-70
2021/12/26 14:57:39;;;;;;;144.10;51.80;;;;;;;-4.42;88.08;100784.36;4904922;59;1141124;-71
2021/12/26 15:02:58;;;;;;;191.83;70.87;;;;;;;-4.54;88.02;100779.78;4985891;57;1141313;-70
2021/12/26 15:08:12;;;;;;;176.83;64.30;;;;;;;-4.64;87.98;100785.06;4976121;58;1141284;-70
2021/12/26 15:13:21;;;;;;;161.77;58.13;;;;;;;-4.72;87.91;100795.03;5036622;58;1141111;-70
2021/12/26 15:18:29;;;;;;;169.37;68.63;;;;;;;-5.00;87.11;100790.17;5039513;57;1141197;-71
2021/12/26 15:23:38;;;;;;;144.43;56.73;;;;;;;-5.09;87.60;100804.45;4959289;58;1139016;-70
2021/12/26 15:28:51;;;;;;;158.00;60.33;;;;;;;-5.23;86.97;100808.03;4974292;58;21239;-70
2021/12/26 15:34:00;;;;;;;141.40;54.53;;;;;;;-5.27;87.58;100801.18;5001658;57;1139138;-70
2021/12/26 15:39:13;;;;;;;145.30;57.10;;;;;;;-5.42;86.30;100802.16;5149385;56;1143078;-70
2021/12/26 15:44:19;;;;;;;151.53;57.07;;;;;;;-5.60;86.47;100807.02;5149234;56;1143199;-71
2021/12/26 15:49:36;;;;;;;158.63;57.37;;;;;;;-5.90;85.58;100811.13;5164224;56;21542;-73
2021/12/26 15:54:44;;;;;;;178.47;64.07;;;;;;;-5.98;86.18;100816.77;5104216;56;1138866;-72
2021/12/26 15:59:50;;;;;;;215.30;73.57;;;;;;;-6.04;85.96;100822.36;5141083;56;1143298;-72
2021/12/26 16:04:56;;;;;;;356.10;121.40;;;;;;;-6.23;85.19;100819.44;5115264;58;1143416;-71
2021/12/26 16:10:04;;;;;;;315.37;107.33;;;;;;;-6.60;84.26;100820.03;5045442;57;1145538;-70
2021/12/26 16:15:10;;;;;;;258.37;85.60;;;;;;;-6.86;83.85;100824.36;4981767;58;1145397;-72
2021/12/26 16:20:16;;;;;;;276.23;87.03;;;;;;;-7.11;83.69;100825.70;4978889;59;1143225;-71
2021/12/26 16:25:22;;;;;;;272.97;94.63;;;;;;;-7.29;84.24;100825.70;4984965;58;1143191;-71
2021/12/26 16:30:28;;;;;;;265.57;87.97;;;;;;;-7.56;83.67;100839.83;4993759;59;1143269;-71
2021/12/26 16:35:35;;;;;;;254.40;80.77;;;;;;;-7.71;84.06;100835.95;4987006;58;1143221;-72
2021/12/26 16:40:41;;;;;;;271.67;85.27;;;;;;;-7.81;83.79;100839.80;4991247;58;1143195;-71
2021/12/26 16:45:48;;;;;;;270.33;80.30;;;;;;;-7.98;83.34;100836.77;4966600;59;1143165;-71
2021/12/26 16:50:54;;;;;;;315.07;87.07;;;;;;;-8.09;83.45;100846.12;4920995;59;1143217;-70
2021/12/26 16:56:00;;;;;;;487.67;201.10;;;;;;;-8.04;84.35;100838.02;4920126;60;1143461;-72
2021/12/26 17:01:09;;;;;;;176.50;57.33;;;;;;;-8.08;84.24;100834.58;4920038;60;1145356;-71
2021/12/26 17:06:24;;;;;;;152.73;53.57;;;;;;;-8.03;84.41;100844.44;4912827;60;1143448;-70
2021/12/26 17:11:24;;;;;;;145.43;51.93;;;;;;;-8.00;84.48;100842.31;4911821;60;1143201;-71
2021/12/26 17:16:29;;;;;;;185.47;60.03;;;;;;;-7.94;84.60;100840.60;4912947;58;1143289;-70
2021/12/26 17:21:36;;;;;;;406.50;122.13;;;;;;;-7.79;84.86;100854.36;4912859;58;1143418;-71
2021/12/26 17:26:42;;;;;;;224.53;71.27;;;;;;;-7.73;84.87;100857.77;4912824;58;1145525;-71
2021/12/26 17:31:48;;;;;;;191.83;63.07;;;;;;;-7.80;83.60;100853.50;4913055;58;1143253;-70
2021/12/26 17:36:54;;;;;;;257.67;85.55;;;;;;;-7.94;82.71;100853.86;4969036;57;1143346;-71
2021/12/26 17:42:00;;;;;;;304.23;94.67;;;;;;;-8.15;82.03;100862.38;4991845;58;1143194;-71
2021/12/26 17:47:06;;;;;;;220.25;76.82;;;;;;;-8.29;82.16;100857.61;4991175;58;1143106;-71
2021/12/26 17:52:12;;;;;;;186.03;63.73;;;;;;;-8.30;82.42;100863.59;4991309;58;1143268;-71
2021/12/26 17:57:18;;;;;;;163.77;59.87;;;;;;;-8.31;82.43;100852.47;4991296;58;1143467;-74
2021/12/26 18:02:23;;;;;;;176.83;70.93;;;;;;;-8.39;81.94;100864.84;4991295;58;1143298;-72
2021/12/26 18:07:30;;;;;;;324.67;108.87;;;;;;;-8.46;81.84;100868.25;4991308;57;1143336;-71
2021/12/26 18:12:37;;;;;;;238.80;75.47;;;;;;;-8.58;81.16;100870.33;4987521;58;1145355;-71
2021/12/26 18:17:44;;;;;;;132.37;48.77;;;;;;;-8.72;80.98;100877.94;4986991;58;1141253;-71
2021/12/26 18:22:50;;;;;;;109.27;38.57;;;;;;;-8.76;80.80;100874.06;4986976;58;1141100;-71
2021/12/26 18:27:57;;;;;;;114.93;41.70;;;;;;;-9.06;79.65;100886.23;4987194;58;1141390;-70
2021/12/26 18:33:03;;;;;;;110.60;41.33;;;;;;;-9.34;79.67;100887.72;4987014;58;1141390;-71
2021/12/26 18:38:09;;;;;;;112.50;42.30;;;;;;;-9.46;80.26;100890.14;4993506;58;1141358;-71
2021/12/26 18:43:15;;;;;;;133.07;43.70;;;;;;;-9.47;80.57;100879.05;4993158;57;1141162;-71
2021/12/26 18:48:23;;;;;;;411.33;116.23;;;;;;;-9.54;80.59;100881.55;4823861;60;1141520;-71
2021/12/26 18:53:29;;;;;;;368.30;109.20;;;;;;;-9.53;80.49;100876.87;4978471;58;1143304;-71
2021/12/26 18:58:35;;;;;;;401.63;128.23;;;;;;;-9.61;80.21;100884.45;5059220;57;1143210;-71
2021/12/26 19:03:41;;;;;;;383.80;120.83;;;;;;;-9.69;80.04;100889.52;5003519;58;1143583;-72
2021/12/26 19:08:47;;;;;;;239.53;76.87;;;;;;;-9.68;80.35;100887.39;4914788;58;1143199;-72
2021/12/26 19:13:53;;;;;;;349.60;95.77;;;;;;;-9.68;80.42;100883.98;4939320;58;1141132;-71
2021/12/26 19:18:58;;;;;;;345.60;92.37;;;;;;;-9.69;80.25;100893.36;4967699;58;1141083;-72
2021/12/26 19:24:05;;;;;;;245.45;73.28;;;;;;;-9.77;79.40;100887.70;5002071;58;1141074;-72
2021/12/26 19:29:11;;;;;;;153.90;51.73;;;;;;;-9.96;79.38;100881.13;4893917;59;1141318;-72
2021/12/26 19:34:18;;;;;;;235.63;71.50;;;;;;;-10.07;78.73;100876.30;4995996;59;1141120;-71
2021/12/26 19:39:24;;;;;;;372.70;99.80;;;;;;;-10.24;78.81;100866.77;4992475;58;1143129;-71
2021/12/26 19:44:30;;;;;;;346.40;100.67;;;;;;;-10.23;79.34;100881.27;4992017;58;1141434;-72
2021/12/26 19:49:36;;;;;;;248.93;78.47;;;;;;;-10.28;78.94;100868.84;4992055;58;1143326;-72
2021/12/26 19:54:42;;;;;;;247.80;83.70;;;;;;;-10.28;79.37;100865.01;4991997;58;1145299;-71
2021/12/26 19:59:48;;;;;;;228.07;77.77;;;;;;;-10.24;79.55;100870.19;4992096;58;1145447;-73
2021/12/26 20:04:54;;;;;;;238.20;77.62;;;;;;;-10.21;79.62;100870.61;4992070;58;1145410;-71
2021/12/26 20:10:00;;;;;;;274.17;94.20;;;;;;;-10.28;78.97;100866.28;4992345;59;1145472;-74
2021/12/26 20:15:06;;;;;;;252.03;87.43;;;;;;;-10.35;78.65;100866.61;4908723;59;1145380;-75
2021/12/26 20:20:12;;;;;;;243.10;85.27;;;;;;;-10.58;78.22;100865.06;4834358;60;1146062;-72
2021/12/26 20:25:24;;;;;;;223.50;78.77;;;;;;;-10.57;79.06;100867.20;4911177;59;1145190;-75
2021/12/26 20:30:43;;;;;;;180.50;65.37;;;;;;;-10.69;77.94;100864.03;4870170;60;1145131;-72
2021/12/26 20:35:57;;;;;;;281.27;87.57;;;;;;;-10.79;78.62;100863.47;4898951;59;1145244;-71
2021/12/26 20:41:02;;;;;;;293.07;95.00;;;;;;;-10.81;78.83;100868.56;5048608;57;1145269;-76
2021/12/26 20:46:08;;;;;;;333.57;102.97;;;;;;;-10.78;79.07;100863.92;5007386;57;1145424;-70
2021/12/26 20:51:15;;;;;;;324.52;99.28;;;;;;;-10.74;79.05;100865.27;5023127;57;1147351;-76
2021/12/26 20:56:21;;;;;;;271.93;84.03;;;;;;;-10.72;78.72;100867.84;5066711;57;1145282;-71
2021/12/26 21:01:27;;;;;;;331.03;103.57;;;;;;;-10.91;77.91;100859.48;5026638;57;1145278;-70
2021/12/26 21:06:35;;;;;;;395.60;123.97;;;;;;;-10.97;78.77;100853.84;5031158;57;1147345;-72
2021/12/26 21:11:44;;;;;;;262.13;80.77;;;;;;;-10.89;79.17;100865.05;5037934;57;1147409;-75
2021/12/26 21:16:59;;;;;;;332.90;95.67;;;;;;;-10.93;78.25;100854.34;5032878;57;1145360;-75
2021/12/26 21:22:46;;;;;;;349.07;103.55;;;;;;;-11.02;77.92;100862.74;5066901;57;1145291;-73
2021/12/26 21:27:43;;;;;;;320.60;98.70;;;;;;;-11.13;77.46;100854.45;5069533;57;1147633;-75
2021/12/26 21:32:50;;;;;;;294.77;87.63;;;;;;;-11.33;77.64;100856.72;5061108;58;1145790;-74
2021/12/26 21:38:02;;;;;;;258.00;83.92;;;;;;;-11.30;78.33;100861.02;4961695;58;1145401;-75
2021/12/26 21:43:14;;;;;;;199.67;65.87;;;;;;;-11.31;78.07;100852.50;4919921;59;1145518;-76
2021/12/26 21:48:20;;;;;;;190.27;65.00;;;;;;;-11.48;77.63;100847.54;4924382;59;1145249;-73
2021/12/26 21:53:35;;;;;;;195.17;65.47;;;;;;;-11.49;78.01;100858.16;5034731;58;1143068;-73
2021/12/26 21:58:43;;;;;;;223.47;71.05;;;;;;;-11.44;78.12;100868.00;5053091;58;1143236;-72
2021/12/26 22:03:50;;;;;;;205.43;67.70;;;;;;;-11.35;78.62;100864.77;5056572;57;1143369;-74
2021/12/26 22:08:57;;;;;;;178.17;61.23;;;;;;;-11.22;79.13;100865.81;5060237;57;1143063;-71
2021/12/26 22:14:10;;;;;;;194.10;63.67;;;;;;;-11.16;79.06;100862.09;5059902;58;1143534;31
2021/12/26 22:19:16;;;;;;;189.27;59.40;;;;;;;-11.12;78.83;100863.83;4663808;61;1140991;-75
2021/12/26 22:24:22;;;;;;;223.33;70.53;;;;;;;-11.16;78.38;100865.92;4769335;60;1143488;-74
2021/12/26 22:29:28;;;;;;;176.22;59.03;;;;;;;-11.19;78.52;100852.69;4796603;60;1143134;-72
2021/12/26 22:34:34;;;;;;;166.73;60.37;;;;;;;-11.17;78.89;100850.16;4848418;60;1143163;-74
2021/12/26 22:39:40;;;;;;;218.85;69.65;;;;;;;-11.15;79.20;100844.22;4843672;60;1143166;-73
2021/12/26 22:44:46;;;;;;;225.33;74.30;;;;;;;-11.15;78.86;100844.66;4843441;60;1143982;-75